Time;durP1;ratioP1;P1;durP2;ratioP2;P2;SDS_P1;SDS_P2;PMS_P1;PMS_P2;Temp;Humidity;BMP_temperature;BMP_pressure;BME280_temperature;BME280_humidity;BME280_pressure;Samples;Min_cycle;Max_cycle;Signal;HPM_P1;HPM_P2
2022/12/14 00:00:40;;;;;;;8.60;8.40;;;3.80;99.90;;;;;;4242515;28;20402;-84
2022/12/14 00:03:00;;;;;;;8.07;7.80;;;3.80;99.90;;;;;;4257595;28;20073;-84
2022/12/14 00:05:20;;;;;;;8.02;7.82;;;3.90;99.90;;;;;;4241967;28;20058;-84
2022/12/14 00:07:40;;;;;;;6.88;6.68;;;3.90;99.90;;;;;;4257024;28;20062;-84
2022/12/14 00:09:59;;;;;;;6.18;6.07;;;4.00;99.90;;;;;;4256667;27;20058;-84
2022/12/14 00:12:19;;;;;;;5.00;4.90;;;3.90;99.90;;;;;;4256388;28;20091;-84
2022/12/14 00:14:38;;;;;;;5.40;5.30;;;3.80;99.90;;;;;;4256836;28;20078;-84
2022/12/14 00:16:59;;;;;;;5.22;5.13;;;3.80;99.90;;;;;;4242380;28;20042;-84
2022/12/14 00:19:19;;;;;;;4.22;3.95;;;3.80;99.90;;;;;;4257782;28;20097;-84
2022/12/14 00:21:39;;;;;;;4.80;4.70;;;3.70;99.90;;;;;;4257420;28;20365;-84
2022/12/14 00:23:59;;;;;;;4.55;4.35;;;3.70;99.90;;;;;;4242353;28;20095;-84
2022/12/14 00:26:25;;;;;;;5.00;4.90;;;3.90;99.90;;;;;;4256658;28;20089;-84
2022/12/14 00:28:46;;;;;;;4.03;4.03;;;3.80;99.90;;;;;;4241452;28;20385;-84
2022/12/14 00:31:06;;;;;;;5.32;5.22;;;3.80;99.90;;;;;;4257399;28;20046;-84
2022/12/14 00:33:26;;;;;;;5.18;5.07;;;3.80;99.90;;;;;;4242128;27;20054;-84
2022/12/14 00:35:46;;;;;;;7.63;7.43;;;3.80;99.90;;;;;;4257631;28;20054;-84
2022/12/14 00:38:06;;;;;;;8.05;7.82;;;3.80;99.90;;;;;;4240790;28;20094;-84
2022/12/14 00:40:27;;;;;;;8.85;8.65;;;3.70;99.90;;;;;;4239989;28;20120;-84
2022/12/14 00:42:46;;;;;;;9.07;8.88;;;3.80;99.90;;;;;;4242110;28;20050;-85
2022/12/14 00:45:07;;;;;;;10.07;9.70;;;3.80;99.90;;;;;;4256458;28;20054;-84
2022/12/14 00:47:27;;;;;;;10.38;9.70;;;3.90;99.90;;;;;;4241719;28;20075;-85
2022/12/14 00:49:47;;;;;;;11.60;10.90;;;3.90;99.90;;;;;;4241372;28;20235;-85
2022/12/14 00:52:08;;;;;;;10.07;9.68;;;3.80;99.90;;;;;;4256373;28;20088;-84
2022/12/14 00:54:27;;;;;;;10.27;9.85;;;3.80;99.90;;;;;;4241305;28;20050;-84
2022/12/14 00:56:47;;;;;;;9.27;8.98;;;3.80;99.90;;;;;;4255763;28;20046;-84
2022/12/14 00:59:07;;;;;;;9.10;8.73;;;3.90;99.90;;;;;;4255691;28;20050;-84
2022/12/14 01:01:29;;;;;;;7.43;7.22;;;3.90;99.90;;;;;;4256819;28;20064;-84
2022/12/14 01:03:49;;;;;;;7.47;7.28;;;3.80;99.90;;;;;;4256953;28;20080;-84
2022/12/14 01:06:16;;;;;;;6.30;6.10;;;3.80;99.90;;;;;;4256879;28;20046;-84
2022/12/14 01:08:36;;;;;;;7.53;7.38;;;3.80;99.90;;;;;;4256343;28;20054;-84
2022/12/14 01:10:55;;;;;;;6.50;6.40;;;3.80;99.90;;;;;;4239840;28;20050;-84
2022/12/14 01:13:15;;;;;;;6.55;6.38;;;3.80;99.90;;;;;;4257023;28;20071;-84
2022/12/14 01:15:34;;;;;;;6.50;6.40;;;3.80;99.90;;;;;;4256961;28;20095;-84
2022/12/14 01:17:54;;;;;;;8.85;8.23;;;3.80;99.90;;;;;;4241169;28;20065;-84
2022/12/14 01:20:15;;;;;;;8.13;7.88;;;3.80;99.90;;;;;;4241527;27;20046;-84
2022/12/14 01:22:35;;;;;;;8.73;8.00;;;3.80;99.90;;;;;;4256546;28;20122;-84
2022/12/14 01:24:55;;;;;;;9.18;8.65;;;3.80;99.90;;;;;;4255944;28;20073;-84
2022/12/14 01:27:15;;;;;;;9.30;8.90;;;3.80;99.90;;;;;;4241317;28;20049;-84
2022/12/14 01:29:35;;;;;;;9.05;8.75;;;3.80;99.90;;;;;;4240873;28;20373;-84
2022/12/14 01:31:56;;;;;;;9.82;9.23;;;3.80;99.90;;;;;;4256832;28;20294;-84
2022/12/14 01:34:16;;;;;;;9.00;8.57;;;3.80;99.90;;;;;;4256292;28;20226;-84
2022/12/14 01:36:38;;;;;;;9.07;8.75;;;3.90;99.90;;;;;;4256111;28;20042;-84
2022/12/14 01:39:03;;;;;;;9.90;9.52;;;3.90;99.90;;;;;;4256478;28;20117;-84
2022/12/14 01:41:29;;;;;;;9.38;9.13;;;3.90;99.90;;;;;;4256142;28;20092;-84
2022/12/14 01:43:53;;;;;;;11.30;10.52;;;3.80;99.90;;;;;;4256406;28;20072;-84
2022/12/14 01:46:24;;;;;;;9.38;8.80;;;3.80;99.90;;;;;;4256612;28;20058;-84
2022/12/14 01:48:45;;;;;;;9.82;9.43;;;3.70;99.90;;;;;;4256349;28;20045;-84
2022/12/14 01:51:05;;;;;;;8.98;8.65;;;3.90;99.90;;;;;;4256216;28;20101;-84
2022/12/14 01:53:25;;;;;;;11.48;10.98;;;3.80;99.90;;;;;;4241333;28;20043;-84
2022/12/14 01:55:50;;;;;;;11.45;10.65;;;3.70;99.90;;;;;;4256498;28;20234;-84
2022/12/14 01:58:37;;;;;;;9.40;9.00;;;3.70;99.90;;;;;;4256265;28;20373;-84
2022/12/14 02:00:59;;;;;;;10.45;10.15;;;3.70;99.90;;;;;;4240421;28;20107;-84
2022/12/14 02:03:36;;;;;;;13.05;11.88;;;3.70;99.90;;;;;;4255556;28;20042;-84
2022/12/14 02:06:01;;;;;;;11.48;10.98;;;3.80;99.90;;;;;;4240368;28;20121;-84
2022/12/14 02:08:22;;;;;;;10.23;9.75;;;3.80;99.90;;;;;;4256062;28;20046;-84
2022/12/14 02:10:45;;;;;;;10.48;9.88;;;3.70;99.90;;;;;;4256142;28;20081;-84
2022/12/14 02:13:13;;;;;;;9.57;9.38;;;3.70;99.90;;;;;;4255117;28;20043;-84
2022/12/14 02:15:34;;;;;;;9.50;9.20;;;3.80;99.90;;;;;;4240021;28;20065;-84
2022/12/14 02:17:54;;;;;;;9.90;9.50;;;3.80;99.90;;;;;;4255902;28;20111;-84
2022/12/14 02:20:15;;;;;;;10.32;9.93;;;3.80;99.90;;;;;;4238254;28;20243;-84
2022/12/14 02:23:03;;;;;;;9.20;8.80;;;3.80;99.90;;;;;;4253203;28;20411;-84
2022/12/14 02:25:48;;;;;;;10.00;9.48;;;3.80;99.90;;;;;;4255789;28;20078;-84
2022/12/14 02:28:38;;;;;;;10.48;10.07;;;3.80;99.90;;;;;;4255099;28;20069;-84
2022/12/14 02:31:28;;;;;;;9.23;8.70;;;3.80;99.90;;;;;;4253846;28;20053;-84
2022/12/14 02:33:57;;;;;;;9.27;8.88;;;3.90;99.90;;;;;;4258367;28;20065;-84
2022/12/14 02:36:53;;;;;;;9.82;9.40;;;3.80;99.90;;;;;;4258233;28;20046;-84
2022/12/14 02:39:27;;;;;;;10.20;9.55;;;3.80;99.90;;;;;;4243176;28;20110;-84
2022/12/14 02:42:14;;;;;;;10.02;9.48;;;3.80;99.90;;;;;;4258838;28;20088;-84
2022/12/14 02:44:42;;;;;;;11.38;10.85;;;3.80;99.90;;;;;;4258506;28;20068;-84
2022/12/14 02:47:10;;;;;;;10.98;10.48;;;3.80;99.90;;;;;;4258841;28;20088;-84
2022/12/14 02:49:59;;;;;;;13.77;12.50;;;3.70;99.90;;;;;;4258040;28;20076;-84
2022/12/14 02:52:32;;;;;;;14.07;13.02;;;3.70;99.90;;;;;;4257446;28;20391;-85
2022/12/14 02:55:07;;;;;;;13.95;13.05;;;3.80;99.90;;;;;;4235349;28;20119;-84
2022/12/14 02:57:54;;;;;;;11.45;10.80;;;3.70;99.90;;;;;;4258270;28;20046;-84
2022/12/14 03:00:14;;;;;;;12.48;11.63;;;3.70;99.90;;;;;;4258568;28;20394;-84
2022/12/14 03:02:37;;;;;;;13.75;12.68;;;3.70;99.90;;;;;;4242390;28;20054;-84
2022/12/14 03:04:57;;;;;;;14.32;13.43;;;3.60;99.90;;;;;;4243010;28;20242;-84
2022/12/14 03:07:32;;;;;;;15.70;14.60;;;3.70;99.90;;;;;;4257470;28;20080;-84
2022/12/14 03:09:53;;;;;;;17.15;15.88;;;3.70;99.90;;;;;;4242914;28;20050;-84
2022/12/14 03:12:14;;;;;;;16.17;14.98;;;3.70;99.90;;;;;;4237168;28;20285;-84
2022/12/14 03:14:41;;;;;;;14.00;13.20;;;3.70;99.90;;;;;;4258080;28;20127;-84
2022/12/14 03:17:14;;;;;;;14.35;13.25;;;3.70;99.90;;;;;;4258564;28;20070;-84
2022/12/14 03:19:43;;;;;;;13.88;12.75;;;3.80;99.90;;;;;;4243733;28;20077;-84
2022/12/14 03:22:17;;;;;;;15.75;14.57;;;3.80;99.90;;;;;;4258434;28;20050;-84
2022/12/14 03:24:42;;;;;;;17.25;15.98;;;3.70;99.90;;;;;;4242790;28;20039;-84
2022/12/14 03:27:23;;;;;;;16.98;15.45;;;3.70;99.90;;;;;;4243079;28;20112;-84
2022/12/14 03:30:02;;;;;;;13.60;12.82;;;3.70;99.90;;;;;;4258204;28;20146;-84
2022/12/14 03:32:25;;;;;;;13.43;12.25;;;3.80;99.90;;;;;;4257389;28;20046;-84
2022/12/14 03:35:00;;;;;;;14.20;13.40;;;3.80;99.90;;;;;;4258116;28;20086;-84
2022/12/14 03:37:35;;;;;;;14.18;13.27;;;3.80;99.90;;;;;;4256808;28;20054;-84
2022/12/14 03:39:55;;;;;;;14.23;13.32;;;3.80;99.90;;;;;;4258183;28;20086;-84
2022/12/14 03:42:43;;;;;;;13.80;12.98;;;3.80;99.90;;;;;;4257342;28;20407;-84
2022/12/14 03:45:20;;;;;;;13.43;12.80;;;3.80;99.90;;;;;;4234665;28;20054;-84
2022/12/14 03:47:58;;;;;;;13.50;12.70;;;3.80;99.90;;;;;;4257618;28;20062;-84
2022/12/14 03:50:29;;;;;;;11.98;11.43;;;3.80;99.90;;;;;;4256949;28;20084;-84
2022/12/14 03:53:13;;;;;;;11.35;10.85;;;3.80;99.90;;;;;;4257804;28;20288;-84
2022/12/14 03:55:48;;;;;;;10.57;10.05;;;3.80;99.90;;;;;;4255986;28;20129;-84
2022/12/14 03:58:21;;;;;;;10.20;9.73;;;3.80;99.90;;;;;;4238816;28;20136;-84
2022/12/14 04:00:50;;;;;;;11.13;10.55;;;3.80;99.90;;;;;;4257821;28;20373;-84
2022/12/14 04:03:13;;;;;;;11.00;10.48;;;3.80;99.90;;;;;;4227877;28;20251;-84
2022/12/14 04:05:45;;;;;;;9.05;8.40;;;3.80;99.90;;;;;;4257677;28;20066;-84
2022/12/14 04:08:40;;;;;;;9.60;9.25;;;3.70;99.90;;;;;;4254518;28;20247;-84
2022/12/14 04:20:27;;;;;;;11.07;10.65;;;3.70;99.90;;;;;;4270573;27;20089;-84
2022/12/14 04:23:02;;;;;;;10.75;10.35;;;3.70;99.90;;;;;;4241955;28;20345;-84
2022/12/14 04:31:18;;;;;;;12.93;12.23;;;3.70;99.90;;;;;;4256459;28;20073;-84
2022/12/14 04:33:47;;;;;;;13.68;12.93;;;3.70;99.90;;;;;;4256576;27;20077;-84
2022/12/14 04:36:07;;;;;;;12.90;12.30;;;3.70;99.90;;;;;;4256204;28;20080;-84
2022/12/14 04:38:35;;;;;;;13.13;12.60;;;3.70;99.90;;;;;;4233971;28;20076;-84
2022/12/14 04:41:02;;;;;;;12.98;12.20;;;3.70;99.90;;;;;;4256946;28;20042;-84
2022/12/14 04:43:39;;;;;;;12.95;12.20;;;3.70;99.90;;;;;;4257325;28;20041;-84
2022/12/14 04:46:10;;;;;;;13.15;12.23;;;3.70;99.90;;;;;;4256362;28;20048;-84
2022/12/14 04:48:43;;;;;;;12.82;11.98;;;3.70;99.90;;;;;;4241384;28;20062;-84
2022/12/14 04:51:12;;;;;;;12.70;12.18;;;3.70;99.90;;;;;;4256814;28;20042;-84
2022/12/14 04:53:34;;;;;;;12.90;12.07;;;3.70;99.90;;;;;;4255432;28;20051;-84
2022/12/14 04:56:04;;;;;;;13.45;12.63;;;3.70;99.90;;;;;;4257160;27;20046;-84
2022/12/14 04:58:27;;;;;;;13.05;12.30;;;3.70;99.90;;;;;;4256739;28;20076;-84
2022/12/14 05:00:59;;;;;;;12.52;11.95;;;3.70;99.90;;;;;;4256983;28;20234;-84
2022/12/14 05:03:26;;;;;;;14.20;13.35;;;3.70;99.90;;;;;;4257069;28;20085;-84
2022/12/14 05:06:21;;;;;;;13.80;13.15;;;3.70;99.90;;;;;;4255906;28;20083;-84
2022/12/14 05:08:56;;;;;;;13.68;12.88;;;3.70;99.90;;;;;;4256520;28;20042;-84
2022/12/14 05:11:16;;;;;;;13.02;12.32;;;3.70;99.90;;;;;;4254690;28;20103;-84
2022/12/14 05:13:56;;;;;;;13.20;12.50;;;3.70;99.90;;;;;;4257060;28;20144;-84
2022/12/14 05:16:18;;;;;;;12.85;12.02;;;3.70;99.90;;;;;;4256907;28;20073;-84
2022/12/14 05:18:38;;;;;;;13.03;12.50;;;3.70;99.90;;;;;;4241683;28;20046;-84
2022/12/14 05:20:58;;;;;;;12.23;11.70;;;3.70;99.90;;;;;;4256879;28;20076;-84
2022/12/14 05:23:18;;;;;;;12.07;11.48;;;3.70;99.90;;;;;;4256448;28;20050;-84
2022/12/14 05:25:37;;;;;;;11.82;11.40;;;3.70;99.90;;;;;;4255924;28;20125;-84
2022/12/14 05:27:57;;;;;;;13.10;12.20;;;3.80;99.90;;;;;;4256866;28;20049;-84
2022/12/14 05:30:17;;;;;;;13.27;12.43;;;3.80;99.90;;;;;;4256579;28;20042;-84
2022/12/14 05:32:36;;;;;;;13.07;12.02;;;3.80;99.90;;;;;;4240595;28;20046;-84
2022/12/14 05:34:56;;;;;;;12.50;11.90;;;3.70;99.90;;;;;;4256115;28;20110;-84
2022/12/14 05:37:16;;;;;;;11.38;10.90;;;3.70;99.90;;;;;;4255294;28;20132;-84
2022/12/14 05:39:38;;;;;;;11.95;11.45;;;3.80;99.90;;;;;;4256380;28;20068;-84
2022/12/14 05:41:57;;;;;;;11.38;10.85;;;3.80;99.90;;;;;;4256004;28;20062;-84
2022/12/14 05:44:17;;;;;;;12.00;11.52;;;3.80;99.90;;;;;;4241188;28;20284;-84
2022/12/14 05:46:37;;;;;;;12.15;11.65;;;3.80;99.90;;;;;;4256791;28;20087;-84
2022/12/14 05:48:57;;;;;;;10.68;10.25;;;3.80;99.90;;;;;;4254637;28;20039;-84
2022/12/14 05:51:17;;;;;;;10.50;9.98;;;3.80;99.90;;;;;;4255460;28;20296;-84
2022/12/14 05:53:38;;;;;;;10.57;10.23;;;3.80;99.90;;;;;;4240324;28;20093;-84
2022/12/14 05:55:58;;;;;;;10.35;10.05;;;3.80;99.90;;;;;;4256011;28;20287;-84
2022/12/14 05:58:17;;;;;;;10.88;10.40;;;3.80;99.90;;;;;;4255700;28;20054;-84
2022/12/14 06:00:37;;;;;;;10.23;9.77;;;3.80;99.90;;;;;;4255042;28;20088;-84
2022/12/14 06:02:57;;;;;;;9.52;9.23;;;3.80;99.90;;;;;;4253748;28;20046;-84
2022/12/14 06:05:18;;;;;;;9.77;9.48;;;3.80;99.90;;;;;;4240837;28;20062;-84
2022/12/14 06:07:38;;;;;;;9.80;9.38;;;3.80;99.90;;;;;;4255668;27;20054;-85
2022/12/14 06:09:58;;;;;;;10.65;10.25;;;3.80;99.90;;;;;;4256141;28;20083;-85
2022/12/14 06:12:18;;;;;;;9.82;9.52;;;3.80;99.90;;;;;;4240292;28;20079;-84
2022/12/14 06:14:37;;;;;;;9.63;9.23;;;3.80;99.90;;;;;;4255733;28;20054;-85
2022/12/14 06:16:57;;;;;;;7.95;7.75;;;3.80;99.90;;;;;;4255941;28;20108;-85
2022/12/14 06:19:17;;;;;;;10.00;9.38;;;3.80;99.90;;;;;;4240680;28;20042;-85
2022/12/14 06:21:40;;;;;;;8.50;8.02;;;3.80;99.90;;;;;;4239482;28;20328;-85
2022/12/14 06:24:00;;;;;;;8.38;8.07;;;3.80;99.90;;;;;;4239840;28;20089;-85
2022/12/14 06:26:21;;;;;;;8.55;8.30;;;3.80;99.90;;;;;;4239486;28;20103;-85
2022/12/14 06:28:41;;;;;;;8.95;8.52;;;3.80;99.90;;;;;;4255318;28;20072;-85
2022/12/14 06:31:01;;;;;;;9.05;8.85;;;3.80;99.90;;;;;;4240386;28;20123;-85
2022/12/14 06:33:21;;;;;;;7.95;7.65;;;3.80;99.90;;;;;;4255696;28;20042;-85
2022/12/14 06:35:45;;;;;;;9.48;9.07;;;3.80;99.90;;;;;;4240478;28;20435;-85
2022/12/14 06:38:05;;;;;;;14.20;13.38;;;3.80;99.90;;;;;;4255343;28;20107;-85
2022/12/14 06:40:24;;;;;;;10.13;9.82;;;3.80;99.90;;;;;;4255160;28;20070;-85
2022/12/14 06:42:46;;;;;;;10.10;9.90;;;3.80;99.90;;;;;;4255953;28;20057;-85
2022/12/14 06:45:06;;;;;;;9.32;9.13;;;3.80;99.90;;;;;;4254173;28;20051;-86
2022/12/14 06:47:27;;;;;;;9.93;9.57;;;3.90;99.90;;;;;;4255480;28;20054;-85
2022/12/14 06:49:48;;;;;;;8.73;8.32;;;3.80;99.90;;;;;;4240293;28;20058;-85
2022/12/14 06:52:09;;;;;;;16.53;15.37;;;3.90;99.90;;;;;;4240715;28;20047;-85
2022/12/14 06:54:29;;;;;;;22.85;20.45;;;3.80;99.90;;;;;;4256009;28;20058;-85
2022/12/14 06:56:49;;;;;;;12.40;11.80;;;3.80;99.90;;;;;;4238676;28;20051;-85
2022/12/14 06:59:09;;;;;;;10.73;10.10;;;3.80;99.90;;;;;;4240409;28;20096;-85
2022/12/14 07:01:29;;;;;;;11.48;10.77;;;3.80;99.90;;;;;;4240137;28;20291;-85
2022/12/14 07:03:52;;;;;;;13.68;12.77;;;3.80;99.90;;;;;;4255535;28;20422;-85
2022/12/14 07:06:12;;;;;;;20.27;18.63;;;3.90;99.90;;;;;;4254550;28;20059;-85
2022/12/14 07:08:35;;;;;;;11.65;11.02;;;3.80;99.90;;;;;;4254231;28;20054;-84
2022/12/14 07:10:55;;;;;;;12.05;11.40;;;3.90;99.90;;;;;;4254076;28;20076;-85
2022/12/14 07:13:21;;;;;;;10.55;10.30;;;3.80;99.90;;;;;;4240867;28;20128;-85
2022/12/14 07:15:41;;;;;;;10.50;10.20;;;3.80;99.90;;;;;;4253965;28;20084;-84
2022/12/14 07:18:01;;;;;;;12.05;11.15;;;3.80;99.90;;;;;;4240267;28;20050;-84
2022/12/14 07:20:21;;;;;;;11.60;11.13;;;3.90;99.90;;;;;;4256707;28;20083;-85
2022/12/14 07:22:40;;;;;;;11.80;11.20;;;3.80;99.90;;;;;;4243201;28;20093;-84
2022/12/14 07:25:00;;;;;;;12.80;12.10;;;3.90;99.90;;;;;;4258586;28;20046;-84
2022/12/14 07:27:20;;;;;;;11.70;11.05;;;3.80;99.90;;;;;;4242959;28;20046;-84
2022/12/14 07:29:40;;;;;;;13.93;13.23;;;3.80;99.90;;;;;;4257751;28;20144;-85
2022/12/14 07:32:00;;;;;;;11.32;10.93;;;3.90;99.90;;;;;;4242942;28;20074;-84
2022/12/14 07:34:19;;;;;;;12.55;11.95;;;3.90;99.90;;;;;;4243015;28;20054;-84
2022/12/14 07:36:39;;;;;;;12.25;11.65;;;3.90;99.90;;;;;;4242948;28;20074;-85
2022/12/14 07:38:59;;;;;;;12.45;11.57;;;3.90;99.90;;;;;;4242820;28;20120;-85
2022/12/14 07:41:22;;;;;;;11.40;11.00;;;3.90;99.90;;;;;;4242436;28;20050;-85
2022/12/14 07:43:44;;;;;;;11.65;11.20;;;4.00;99.90;;;;;;4258193;28;20041;-85
2022/12/14 07:46:13;;;;;;;10.98;10.43;;;4.00;99.90;;;;;;4255695;28;20268;-84
2022/12/14 07:48:33;;;;;;;12.45;11.55;;;4.00;99.90;;;;;;4258197;28;20081;-85
2022/12/14 07:50:54;;;;;;;15.90;15.07;;;4.00;99.90;;;;;;4257433;28;20114;-84
2022/12/14 07:53:14;;;;;;;14.77;13.73;;;4.00;99.90;;;;;;4258104;28;20230;-84
2022/12/14 07:55:34;;;;;;;15.73;14.73;;;4.00;99.90;;;;;;4258260;28;20062;-84
2022/12/14 07:57:54;;;;;;;23.73;21.27;;;4.00;99.90;;;;;;4257768;28;20074;-84
2022/12/14 08:00:15;;;;;;;18.73;16.88;;;4.10;99.90;;;;;;4239348;28;20166;-85
2022/12/14 08:02:35;;;;;;;17.02;15.80;;;4.10;99.90;;;;;;4257961;28;20277;-84
2022/12/14 08:04:55;;;;;;;24.08;16.38;;;4.10;99.90;;;;;;4257135;28;20084;-84
2022/12/14 08:07:15;;;;;;;20.08;18.08;;;4.10;99.90;;;;;;4256782;28;20320;-85
2022/12/14 08:09:34;;;;;;;39.63;26.27;;;4.10;99.90;;;;;;4242191;28;20084;-85
2022/12/14 08:11:55;;;;;;;35.05;22.88;;;4.10;99.90;;;;;;4257394;28;20038;-85
2022/12/14 08:14:16;;;;;;;19.90;17.45;;;4.20;99.90;;;;;;4242484;28;20081;-85
2022/12/14 08:16:36;;;;;;;14.68;13.38;;;4.20;99.90;;;;;;4257381;28;20113;-85
2022/12/14 08:18:58;;;;;;;17.85;16.38;;;4.20;99.90;;;;;;4257903;28;20084;-85
2022/12/14 08:21:20;;;;;;;16.52;15.13;;;4.20;99.90;;;;;;4256862;28;20156;-85
2022/12/14 08:23:40;;;;;;;20.58;18.80;;;4.20;99.90;;;;;;4242283;28;20056;-86
2022/12/14 08:26:01;;;;;;;16.58;15.48;;;4.20;99.90;;;;;;4242080;28;20047;-86
2022/12/14 08:28:22;;;;;;;14.27;13.38;;;4.20;99.90;;;;;;4256584;28;20065;-85
2022/12/14 08:30:42;;;;;;;15.45;14.15;;;4.20;99.90;;;;;;4257177;27;20076;-85
2022/12/14 08:33:02;;;;;;;11.85;11.15;;;4.30;99.90;;;;;;4256141;28;20076;-85
2022/12/14 08:35:24;;;;;;;12.27;11.77;;;4.30;99.90;;;;;;4239392;28;20405;-85
2022/12/14 08:37:44;;;;;;;11.35;10.82;;;4.30;99.90;;;;;;4257102;28;20069;-85
2022/12/14 08:40:08;;;;;;;10.55;10.10;;;4.40;99.90;;;;;;4226653;28;20306;-85
2022/12/14 08:42:29;;;;;;;7.93;7.75;;;4.40;99.90;;;;;;4256851;27;20042;-85
2022/12/14 08:44:49;;;;;;;8.00;7.70;;;4.40;99.90;;;;;;4256208;27;20035;-86
2022/12/14 08:47:09;;;;;;;8.23;7.93;;;4.40;99.90;;;;;;4271008;27;20049;-85
2022/12/14 08:49:29;;;;;;;6.65;6.32;;;4.40;99.90;;;;;;4253943;28;20078;-85
2022/12/14 08:51:52;;;;;;;8.70;8.15;;;4.40;99.90;;;;;;4243005;28;20050;-85
2022/12/14 08:54:11;;;;;;;8.18;7.80;;;4.50;99.90;;;;;;4242591;28;20350;-85
2022/12/14 08:56:31;;;;;;;9.63;9.32;;;4.50;99.90;;;;;;4257068;28;20088;-85
2022/12/14 08:58:52;;;;;;;8.13;7.88;;;4.50;99.90;;;;;;4239943;28;20317;-85
2022/12/14 09:01:23;;;;;;;8.23;8.02;;;4.50;99.90;;;;;;4256830;28;20092;-85
2022/12/14 09:03:52;;;;;;;10.10;9.65;;;4.50;99.90;;;;;;4257123;28;20377;-85
2022/12/14 09:06:15;;;;;;;9.88;9.57;;;4.60;99.90;;;;;;4256735;28;20100;-85
2022/12/14 09:08:35;;;;;;;9.93;9.50;;;4.60;99.90;;;;;;4239591;28;20050;-85
2022/12/14 09:10:55;;;;;;;10.43;10.05;;;4.60;99.90;;;;;;4256418;28;20059;-85
2022/12/14 09:13:15;;;;;;;10.60;10.25;;;4.70;99.90;;;;;;4239469;28;20043;-86
2022/12/14 09:15:35;;;;;;;9.02;8.75;;;4.70;99.90;;;;;;4241008;28;20123;-85
2022/12/14 09:17:55;;;;;;;9.93;9.63;;;4.70;99.90;;;;;;4241408;28;20377;-85
2022/12/14 09:20:15;;;;;;;9.95;9.57;;;4.70;99.90;;;;;;4238753;28;20078;-85
2022/12/14 09:22:36;;;;;;;8.20;8.00;;;4.80;99.90;;;;;;4241189;28;20080;-85
2022/12/14 09:24:55;;;;;;;9.23;9.02;;;4.80;99.90;;;;;;4256884;28;20057;-85
2022/12/14 09:27:15;;;;;;;9.82;9.52;;;4.90;99.90;;;;;;4256087;28;20406;-86
2022/12/14 09:29:35;;;;;;;9.80;9.52;;;4.90;99.90;;;;;;4240572;28;20111;-86
2022/12/14 09:31:55;;;;;;;10.85;10.45;;;4.90;99.90;;;;;;4240664;28;20042;-86
2022/12/14 09:34:15;;;;;;;12.43;11.48;;;4.90;99.90;;;;;;4241053;28;20081;-86
2022/12/14 09:36:36;;;;;;;9.65;9.35;;;4.90;99.90;;;;;;4255586;28;20069;-85
2022/12/14 09:38:57;;;;;;;10.95;10.57;;;5.00;99.90;;;;;;4255862;28;20398;-85
2022/12/14 09:41:33;;;;;;;9.85;9.45;;;5.10;99.90;;;;;;4256397;27;20099;-85
2022/12/14 09:44:14;;;;;;;9.18;8.98;;;5.10;99.90;;;;;;4244318;28;20080;-86
2022/12/14 09:46:56;;;;;;;10.73;10.20;;;5.10;99.90;;;;;;4242523;28;20238;-85
2022/12/14 09:49:41;;;;;;;10.70;10.18;;;5.20;99.90;;;;;;4233252;28;20103;-85
2022/12/14 09:52:04;;;;;;;9.32;9.02;;;5.30;99.90;;;;;;4256561;28;20357;-85
2022/12/14 09:54:28;;;;;;;11.60;11.10;;;5.30;99.90;;;;;;4236200;28;20120;-85
2022/12/14 09:56:48;;;;;;;13.55;12.63;;;5.40;99.90;;;;;;4240213;28;20074;-85
2022/12/14 09:59:15;;;;;;;15.13;14.05;;;5.50;99.90;;;;;;4239793;28;20051;-86
2022/12/14 10:01:43;;;;;;;9.05;8.75;;;5.50;99.90;;;;;;4255464;28;20383;-86
2022/12/14 10:04:28;;;;;;;10.23;9.80;;;5.50;99.90;;;;;;4255530;28;20044;-86
2022/12/14 10:07:03;;;;;;;10.35;9.95;;;5.60;99.90;;;;;;4255659;28;20046;-85
2022/12/14 10:09:47;;;;;;;10.32;9.85;;;5.60;99.90;;;;;;4254271;28;20046;-85
2022/12/14 10:12:37;;;;;;;9.98;9.23;;;5.70;99.90;;;;;;4255711;28;20050;-86
2022/12/14 10:15:16;;;;;;;7.95;7.80;;;5.60;99.90;;;;;;4255829;28;20054;-85
2022/12/14 10:18:02;;;;;;;8.65;8.35;;;5.60;99.90;;;;;;4260954;27;20082;-86
2022/12/14 10:20:27;;;;;;;9.07;8.57;;;5.70;99.90;;;;;;4235697;28;20050;-85
2022/12/14 10:22:51;;;;;;;9.75;9.00;;;5.80;99.90;;;;;;4255804;28;20037;-86
2022/12/14 10:25:25;;;;;;;8.57;8.38;;;5.80;99.90;;;;;;4242514;28;20078;-85
2022/12/14 10:27:55;;;;;;;9.65;9.27;;;5.80;99.90;;;;;;4240877;28;20069;-85
2022/12/14 10:30:31;;;;;;;9.32;9.02;;;5.90;99.90;;;;;;4255127;28;20233;-85
2022/12/14 10:33:01;;;;;;;8.93;8.38;;;5.90;99.90;;;;;;4256208;28;20081;-85
2022/12/14 10:35:42;;;;;;;7.82;7.63;;;5.90;99.90;;;;;;4240718;28;20158;-85
2022/12/14 10:38:22;;;;;;;10.48;10.02;;;5.90;99.90;;;;;;4239460;28;20076;-85
2022/12/14 10:40:48;;;;;;;13.57;12.70;;;5.90;99.90;;;;;;4254965;28;20372;-85
2022/12/14 10:43:27;;;;;;;10.77;10.48;;;6.00;99.90;;;;;;4239503;28;20373;-85
2022/12/14 10:46:11;;;;;;;10.52;10.00;;;6.00;99.90;;;;;;4255681;28;20042;-85
2022/12/14 10:48:51;;;;;;;9.45;9.25;;;5.90;99.90;;;;;;4253621;28;20050;-85
2022/12/14 10:51:33;;;;;;;12.02;11.45;;;5.90;99.90;;;;;;4240242;28;20085;-85
2022/12/14 10:54:11;;;;;;;19.15;17.52;;;5.90;99.90;;;;;;4256183;27;20127;-85
2022/12/14 10:56:33;;;;;;;17.23;15.98;;;6.00;99.90;;;;;;4258489;28;20084;-85
2022/12/14 10:59:28;;;;;;;12.48;11.77;;;6.00;99.90;;;;;;4258155;28;20050;-85
2022/12/14 11:02:15;;;;;;;11.68;11.27;;;6.00;99.90;;;;;;4257671;28;20057;-86
2022/12/14 11:04:43;;;;;;;11.05;10.38;;;6.00;99.90;;;;;;4241728;28;20050;-85
2022/12/14 11:07:09;;;;;;;10.90;10.50;;;6.00;99.90;;;;;;4257114;28;20041;-85
2022/12/14 11:09:29;;;;;;;11.13;10.65;;;6.10;99.90;;;;;;4258441;28;20038;-85
2022/12/14 11:12:07;;;;;;;11.38;10.68;;;6.10;99.90;;;;;;4258101;28;20046;-85
2022/12/14 11:14:28;;;;;;;10.40;9.90;;;6.20;99.90;;;;;;4257399;28;20073;-84
2022/12/14 11:16:47;;;;;;;9.95;9.55;;;6.20;99.90;;;;;;4243228;28;20054;-85
2022/12/14 11:19:19;;;;;;;11.15;10.68;;;6.10;99.90;;;;;;4258658;28;20042;-85
2022/12/14 11:21:39;;;;;;;10.18;9.75;;;6.20;99.90;;;;;;4242145;28;20089;-85
2022/12/14 11:24:00;;;;;;;10.75;10.45;;;6.20;99.90;;;;;;4243092;28;20105;-85
2022/12/14 11:26:34;;;;;;;18.60;17.08;;;6.20;99.90;;;;;;4242856;28;20047;-85
2022/12/14 11:28:57;;;;;;;14.90;13.80;;;6.20;99.90;;;;;;4256504;28;20083;-84
2022/12/14 11:31:25;;;;;;;18.50;16.95;;;6.20;99.90;;;;;;4243070;28;20115;-85
2022/12/14 11:33:53;;;;;;;10.43;10.02;;;6.20;99.90;;;;;;4257623;28;20121;-84
2022/12/14 11:36:29;;;;;;;22.65;20.40;;;6.20;99.90;;;;;;4257914;28;20042;-84
2022/12/14 11:39:00;;;;;;;23.27;21.35;;;6.10;99.90;;;;;;4244233;28;20314;-84
2022/12/14 11:41:21;;;;;;;16.17;15.00;;;6.10;99.90;;;;;;4241376;28;20300;-84
2022/12/14 11:43:42;;;;;;;16.90;15.90;;;6.10;99.90;;;;;;4243110;28;20073;-84
2022/12/14 11:46:02;;;;;;;13.73;12.80;;;6.10;99.90;;;;;;4242894;28;20046;-85
2022/12/14 11:48:27;;;;;;;10.27;9.88;;;6.10;99.90;;;;;;4257055;28;20058;-85
2022/12/14 11:50:50;;;;;;;16.23;14.95;;;6.10;99.90;;;;;;4257936;28;20049;-85
2022/12/14 11:53:13;;;;;;;20.57;18.57;;;6.20;99.90;;;;;;4242397;28;20047;-85
2022/12/14 11:55:37;;;;;;;23.65;21.33;;;6.30;99.90;;;;;;4256261;28;20047;-85
2022/12/14 11:57:59;;;;;;;26.13;23.30;;;6.30;99.90;;;;;;4256710;28;20069;-85
2022/12/14 12:00:29;;;;;;;28.85;26.15;;;6.40;99.90;;;;;;4242554;28;20077;-86
2022/12/14 12:03:12;;;;;;;39.40;29.17;;;6.50;99.90;;;;;;4241472;28;20334;-86
2022/12/14 12:05:37;;;;;;;42.40;32.33;;;6.50;99.90;;;;;;4255582;27;20311;-86
2022/12/14 12:08:01;;;;;;;56.15;39.03;;;6.40;99.90;;;;;;4239680;28;20119;-86
2022/12/14 12:10:23;;;;;;;49.60;34.83;;;6.40;99.90;;;;;;4242571;28;20051;-86
2022/12/14 12:12:49;;;;;;;27.52;23.20;;;6.40;99.90;;;;;;4257316;28;20050;-86
2022/12/14 12:15:41;;;;;;;26.92;24.13;;;6.40;99.90;;;;;;4243009;28;20281;-86
2022/12/14 12:18:14;;;;;;;25.10;23.10;;;6.40;99.90;;;;;;4242560;28;20103;-86
2022/12/14 12:20:59;;;;;;;24.07;21.97;;;6.50;99.90;;;;;;4257426;28;20042;-86
2022/12/14 12:23:27;;;;;;;27.30;24.58;;;6.50;99.90;;;;;;4257294;28;20376;-86
2022/12/14 12:25:51;;;;;;;18.05;16.42;;;6.50;99.90;;;;;;4257196;28;20046;-86
2022/12/14 12:28:21;;;;;;;21.08;19.13;;;6.50;99.90;;;;;;4257784;28;20042;-86
2022/12/14 12:30:45;;;;;;;26.10;22.85;;;6.40;99.90;;;;;;4257270;28;20110;-86
2022/12/14 12:33:45;;;;;;;18.23;16.65;;;6.50;99.90;;;;;;4242015;28;20051;-86
2022/12/14 12:36:05;;;;;;;17.05;15.45;;;6.50;99.90;;;;;;4254784;28;20062;-86
2022/12/14 12:38:55;;;;;;;22.55;20.35;;;6.50;99.90;;;;;;4255302;28;20410;-85
2022/12/14 12:42:03;;;;;;;16.63;15.50;;;6.40;99.90;;;;;;4257392;28;20405;-86
2022/12/14 12:44:44;;;;;;;25.20;23.02;;;6.50;99.90;;;;;;4182825;28;20258;-85
2022/12/14 12:47:28;;;;;;;29.58;26.48;;;6.50;99.90;;;;;;4180173;28;20159;-85
2022/12/14 12:50:26;;;;;;;20.50;18.73;;;6.50;99.90;;;;;;4182798;28;20333;-85
2022/12/14 12:52:50;;;;;;;25.40;22.88;;;6.60;99.90;;;;;;4184306;28;20047;-86